createdAt,value
2018-12-24T00:02:24.503Z,95.90
2018-12-24T00:07:46.656Z,96.00
2018-12-24T00:10:16.869Z,96.10
2018-12-24T00:12:48.992Z,96.00
2018-12-24T00:15:19.441Z,96.00
2018-12-24T00:17:49.627Z,96.20
2018-12-24T00:20:20.161Z,96.30
2018-12-24T00:23:09.282Z,96.50
2018-12-24T00:25:39.713Z,96.10
2018-12-24T00:28:11.527Z,96.10
2018-12-24T00:30:42.661Z,96.20
2018-12-24T00:33:13.763Z,96.30
2018-12-24T00:35:43.954Z,96.30
2018-12-24T00:38:15.099Z,96.10
2018-12-24T00:40:45.299Z,96.00
2018-12-24T00:43:15.336Z,95.90
2018-12-24T00:45:45.590Z,95.80
2018-12-24T00:48:16.529Z,95.80
2018-12-24T00:50:47.499Z,95.80
2018-12-24T00:53:18.363Z,95.70
2018-12-24T00:55:48.480Z,95.60
2018-12-24T00:58:19.541Z,95.50
2018-12-24T01:00:49.552Z,95.40
2018-12-24T01:03:38.607Z,95.40
2018-12-24T01:06:09.059Z,95.10
2018-12-24T01:08:40.529Z,95.40
2018-12-24T01:11:10.707Z,95.40
2018-12-24T01:13:41.596Z,95.40
2018-12-24T01:16:12.801Z,95.40
2018-12-24T01:18:42.936Z,95.60
2018-12-24T01:21:13.027Z,95.40
2018-12-24T01:23:43.044Z,95.50
2018-12-24T01:26:13.160Z,95.20
2018-12-24T01:28:43.244Z,95.40
2018-12-24T01:31:13.358Z,95.50
2018-12-24T01:33:43.246Z,95.40
2018-12-24T01:36:13.340Z,95.50
2018-12-24T01:38:44.380Z,95.40
2018-12-24T01:41:14.543Z,95.50
2018-12-24T01:43:45.635Z,95.40
2018-12-24T01:46:15.815Z,95.30
2018-12-24T01:48:46.891Z,95.60
2018-12-24T01:51:17.851Z,95.30
2018-12-24T01:53:48.047Z,95.10
2018-12-24T01:56:18.155Z,95.20
2018-12-24T01:58:49.438Z,95.20
2018-12-24T02:01:19.517Z,95.50
2018-12-24T02:03:49.525Z,95.50
2018-12-24T02:06:20.091Z,95.60
2018-12-24T02:08:50.267Z,95.90
2018-12-24T02:11:20.379Z,95.90
2018-12-24T02:13:50.483Z,96.00
2018-12-24T02:16:20.523Z,96.10
2018-12-24T02:18:51.155Z,96.10
2018-12-24T02:21:21.397Z,96.10
2018-12-24T02:24:10.400Z,96.00
2018-12-24T02:26:40.483Z,96.00
2018-12-24T02:29:11.041Z,95.90
2018-12-24T02:31:42.129Z,95.80
2018-12-24T02:34:12.705Z,95.80
2018-12-24T02:36:42.760Z,95.70
2018-12-24T02:39:12.876Z,95.80
2018-12-24T02:41:43.995Z,95.80
2018-12-24T02:44:14.503Z,95.90
2018-12-24T02:46:44.563Z,95.90
2018-12-24T02:49:14.619Z,96.10
2018-12-24T02:51:44.767Z,96.50
2018-12-24T02:54:15.269Z,96.10
2018-12-24T02:56:45.373Z,96.30
2018-12-24T02:59:15.394Z,96.30
2018-12-24T03:01:46.229Z,96.40
2018-12-24T03:23:01.281Z,97.70
2018-12-24T03:25:31.344Z,98.00
2018-12-24T03:28:01.713Z,98.30
2018-12-24T03:30:31.881Z,98.90
2018-12-24T03:33:01.999Z,98.80
2018-12-24T03:35:32.005Z,99.00
2018-12-24T03:38:02.351Z,99.20
2018-12-24T03:40:32.580Z,99.30
2018-12-24T03:43:12.087Z,99.50
2018-12-24T03:45:53.731Z,99.80
2018-12-24T03:48:23.783Z,95.70
2018-12-24T03:50:53.940Z,94.00
2018-12-24T03:53:24.902Z,94.40
2018-12-24T03:55:55.007Z,95.40
2018-12-24T03:58:28.735Z,96.80
2018-12-24T04:00:58.828Z,97.60
2018-12-24T04:03:28.840Z,98.20
2018-12-24T04:05:59.200Z,99.20
2018-12-24T04:08:29.644Z,99.60
2018-12-24T04:10:59.702Z,99.90
2018-12-24T04:13:30.600Z,99.90
2018-12-24T04:16:00.668Z,99.90
2018-12-24T04:18:31.439Z,99.90
2018-12-24T04:21:01.556Z,99.90
2018-12-24T04:23:31.941Z,99.90
2018-12-24T04:26:02.112Z,99.90
2018-12-24T04:28:32.166Z,99.90
2018-12-24T04:31:02.640Z,99.90
2018-12-24T04:33:33.479Z,99.90
2018-12-24T04:36:03.616Z,99.90
2018-12-24T04:38:34.433Z,99.90
2018-12-24T04:41:04.609Z,99.90
2018-12-24T04:43:35.476Z,99.90
2018-12-24T04:46:24.373Z,99.90
2018-12-24T04:48:54.880Z,99.90
2018-12-24T04:51:24.966Z,99.90
2018-12-24T04:53:55.737Z,99.90
2018-12-24T04:56:25.910Z,99.70
2018-12-24T04:58:56.023Z,99.80
2018-12-24T05:04:02.568Z,99.90
2018-12-24T05:06:33.754Z,99.80
2018-12-24T05:09:03.932Z,99.90
2018-12-24T05:11:34.140Z,99.90
2018-12-24T05:14:04.367Z,99.90
2018-12-24T05:16:34.448Z,99.90
2018-12-24T05:19:04.692Z,99.80
2018-12-24T05:21:34.773Z,99.60
2018-12-24T05:24:04.920Z,99.70
2018-12-24T05:26:34.984Z,99.50
2018-12-24T05:29:05.498Z,99.30
2018-12-24T05:31:35.592Z,99.20
2018-12-24T05:34:05.642Z,98.80
2018-12-24T05:36:36.007Z,99.20
2018-12-24T05:39:07.406Z,98.50
2018-12-24T05:41:37.520Z,99.20
2018-12-24T05:44:07.524Z,99.30
2018-12-24T05:46:37.937Z,99.60
2018-12-24T05:49:08.069Z,99.70
2018-12-24T05:51:57.036Z,99.90
2018-12-24T05:54:27.144Z,99.70
2018-12-24T05:56:57.332Z,99.90
2018-12-24T05:59:27.462Z,99.90
2018-12-24T06:01:57.466Z,99.90
2018-12-24T06:04:27.900Z,99.90
2018-12-24T06:07:16.822Z,99.80
2018-12-24T06:09:47.618Z,99.60
2018-12-24T06:12:19.720Z,99.50
2018-12-24T06:14:50.960Z,99.30
2018-12-24T06:17:21.136Z,99.40
2018-12-24T06:19:51.219Z,99.20
2018-12-24T06:22:21.801Z,99.40
2018-12-24T06:24:51.830Z,99.30
2018-12-24T06:27:22.453Z,99.20
2018-12-24T06:29:52.607Z,99.00
2018-12-24T06:32:22.895Z,98.70
2018-12-24T06:34:53.066Z,98.50
2018-12-24T06:37:37.052Z,98.90
2018-12-24T06:39:55.003Z,99.20
2018-12-24T06:42:25.314Z,99.00
2018-12-24T06:44:55.483Z,99.20
2018-12-24T06:47:26.680Z,99.00
2018-12-24T06:49:57.442Z,99.30
2018-12-24T06:52:27.487Z,99.50
2018-12-24T06:54:57.617Z,99.50
2018-12-24T06:57:27.714Z,99.60
2018-12-24T06:59:57.828Z,99.80
2018-12-24T07:02:28.035Z,99.20
2018-12-24T07:04:58.216Z,98.90
2018-12-24T07:11:04.260Z,99.20
2018-12-24T07:13:33.949Z,98.80
2018-12-24T07:16:04.648Z,98.90
2018-12-24T07:18:34.276Z,98.90
2018-12-24T07:21:04.062Z,98.90
2018-12-24T07:23:35.602Z,98.70
2018-12-24T07:26:05.387Z,98.70
2018-12-24T07:28:35.151Z,98.70
2018-12-24T07:31:04.893Z,98.90
2018-12-24T07:33:35.673Z,98.50
2018-12-24T07:36:05.356Z,98.70
2018-12-24T07:38:35.815Z,98.70
2018-12-24T07:41:06.428Z,98.60
2018-12-24T07:43:36.931Z,98.50
2018-12-24T07:46:06.593Z,98.60
2018-12-24T07:48:36.286Z,98.70
2018-12-24T07:51:06.034Z,98.10
2018-12-24T07:53:36.476Z,98.10
2018-12-24T07:56:06.306Z,98.00
2018-12-24T07:58:35.929Z,98.00
2018-12-24T08:03:59.234Z,97.80
2018-12-24T08:06:28.871Z,98.20
2018-12-24T08:08:58.575Z,98.30
2018-12-24T08:11:28.282Z,98.30
2018-12-24T08:13:58.067Z,98.40
2018-12-24T08:16:27.631Z,98.30
2018-12-24T08:18:57.278Z,98.10
2018-12-24T08:21:26.944Z,98.20
2018-12-24T08:23:57.691Z,98.00
2018-12-24T08:26:27.471Z,98.00
2018-12-24T08:28:58.076Z,98.00
2018-12-24T08:31:58.882Z,97.80
2018-12-24T08:34:28.722Z,97.70
2018-12-24T08:36:58.375Z,97.50
2018-12-24T08:39:28.006Z,97.70
2018-12-24T08:41:57.658Z,97.70
2018-12-24T08:47:23.725Z,97.00
2018-12-24T08:49:53.525Z,97.30
2018-12-24T08:52:23.429Z,97.40
2018-12-24T08:54:53.824Z,97.40
2018-12-24T08:57:42.736Z,97.40
2018-12-24T09:00:13.618Z,97.40
2018-12-24T09:02:44.294Z,97.60
2018-12-24T09:05:14.039Z,96.90
2018-12-24T09:07:43.647Z,96.90
2018-12-24T09:10:13.337Z,96.90
2018-12-24T09:12:43.185Z,96.90
2018-12-24T09:15:13.003Z,96.50
2018-12-24T09:17:42.738Z,96.40
2018-12-24T09:20:31.450Z,96.80
2018-12-24T09:23:05.360Z,96.60
2018-12-24T09:25:35.066Z,97.00
2018-12-24T09:28:05.675Z,96.90
2018-12-24T09:30:36.478Z,96.90
2018-12-24T09:33:07.152Z,97.20
2018-12-24T09:35:36.894Z,96.90
2018-12-24T09:38:07.915Z,97.10
2018-12-24T09:40:37.573Z,97.40
2018-12-24T09:43:09.039Z,97.10
2018-12-24T09:45:38.734Z,97.20
2018-12-24T09:48:09.365Z,97.00
2018-12-24T09:50:38.926Z,97.20
2018-12-24T09:53:09.148Z,97.20
2018-12-24T09:55:38.972Z,97.50
2018-12-24T09:58:08.834Z,97.60
2018-12-24T10:00:57.613Z,97.60
2018-12-24T10:03:34.016Z,97.60
2018-12-24T10:06:15.588Z,96.90
2018-12-24T10:08:45.543Z,97.20
2018-12-24T10:11:15.088Z,97.10
2018-12-24T10:13:45.584Z,97.20
2018-12-24T10:16:15.248Z,97.10
2018-12-24T10:18:47.923Z,97.20
2018-12-24T10:21:17.657Z,96.90
2018-12-24T10:24:06.290Z,96.70
2018-12-24T10:26:37.011Z,96.50
2018-12-24T10:29:06.704Z,96.10
2018-12-24T10:31:36.515Z,95.90
2018-12-24T10:34:06.451Z,95.60
2018-12-24T10:36:36.101Z,95.90
2018-12-24T10:39:08.272Z,95.90
2018-12-24T10:41:38.046Z,95.80
2018-12-24T10:44:07.826Z,96.00
2018-12-24T10:46:37.532Z,95.80
2018-12-24T10:49:07.395Z,95.70
2018-12-24T10:51:36.918Z,95.00
2018-12-24T10:54:07.318Z,95.10
2018-12-24T10:56:37.066Z,94.90
2018-12-24T10:59:06.736Z,94.60
2018-12-24T11:04:12.407Z,95.10
2018-12-24T11:06:42.200Z,94.80
2018-12-24T11:09:12.046Z,94.90
2018-12-24T11:11:41.712Z,94.90
2018-12-24T11:14:11.427Z,94.90
2018-12-24T11:16:44.033Z,94.80
2018-12-24T11:19:31.098Z,94.70
2018-12-24T11:22:00.715Z,94.70
2018-12-24T11:24:31.575Z,93.80
2018-12-24T11:27:01.254Z,94.40
2018-12-24T11:29:31.007Z,94.40
2018-12-24T11:32:01.447Z,94.50
2018-12-24T11:34:32.141Z,94.70
2018-12-24T11:37:01.866Z,94.20
2018-12-24T11:39:31.696Z,94.30
2018-12-24T11:42:01.456Z,94.10
2018-12-24T11:44:31.333Z,94.30
2018-12-24T11:47:01.220Z,93.80
2018-12-24T11:49:32.703Z,94.00
2018-12-24T11:52:02.442Z,94.30
2018-12-24T11:54:32.065Z,94.20
2018-12-24T11:57:01.819Z,94.10
2018-12-24T11:59:31.635Z,93.80
2018-12-24T12:04:55.279Z,93.80
2018-12-24T12:07:25.798Z,93.50
2018-12-24T12:09:55.622Z,93.90
2018-12-24T12:12:25.358Z,94.00
2018-12-24T12:14:55.146Z,93.40
2018-12-24T12:17:24.876Z,93.60
2018-12-24T12:19:54.560Z,93.80
2018-12-24T12:22:24.376Z,93.10
2018-12-24T12:24:54.310Z,93.00
2018-12-24T12:27:23.924Z,92.70
2018-12-24T12:29:53.727Z,92.60
2018-12-24T12:32:23.416Z,92.60
2018-12-24T12:34:53.565Z,92.80
2018-12-24T12:37:23.343Z,92.50
2018-12-24T12:39:52.987Z,92.20
2018-12-24T12:42:22.887Z,92.10
2018-12-24T12:44:52.587Z,92.80
2018-12-24T12:47:22.444Z,92.90
2018-12-24T12:49:52.110Z,93.10
2018-12-24T12:52:21.864Z,92.30
2018-12-24T12:54:51.442Z,91.90
2018-12-24T12:57:21.315Z,92.20
2018-12-24T12:59:50.832Z,92.30
2018-12-24T13:05:02.345Z,92.30
2018-12-24T13:07:32.165Z,92.40
2018-12-24T13:10:01.907Z,92.40
2018-12-24T13:12:31.794Z,92.30
2018-12-24T13:15:01.631Z,92.30
2018-12-24T13:17:31.418Z,92.10
2018-12-24T13:20:01.125Z,92.20
2018-12-24T13:22:49.810Z,92.20
2018-12-24T13:25:20.697Z,92.30
2018-12-24T13:27:50.412Z,92.00
2018-12-24T13:30:20.307Z,92.20
2018-12-24T13:32:50.117Z,92.00
2018-12-24T13:35:20.391Z,92.20
2018-12-24T13:37:50.456Z,92.50
2018-12-24T13:40:20.083Z,92.70
2018-12-24T13:42:49.832Z,93.10
2018-12-24T13:45:19.892Z,93.10
2018-12-24T13:47:49.696Z,93.20
2018-12-24T13:50:19.385Z,93.20
2018-12-24T13:52:49.178Z,93.20
2018-12-24T13:55:19.055Z,93.10
2018-12-24T13:57:48.707Z,92.90
2018-12-24T14:02:53.743Z,92.70
2018-12-24T14:05:23.383Z,92.60
2018-12-24T14:07:53.143Z,92.80
2018-12-24T14:10:22.899Z,92.20
2018-12-24T14:12:53.823Z,92.10
2018-12-24T14:15:23.752Z,92.20
2018-12-24T14:17:55.137Z,92.20
2018-12-24T14:20:24.738Z,92.40
2018-12-24T14:22:54.414Z,92.40
2018-12-24T14:25:24.138Z,92.10
2018-12-24T14:27:53.740Z,92.00
2018-12-24T14:30:24.527Z,92.80
2018-12-24T14:32:54.567Z,93.20
2018-12-24T14:35:24.294Z,94.20
2018-12-24T14:37:53.910Z,94.40
2018-12-24T14:40:23.727Z,95.00
2018-12-24T14:42:53.365Z,95.40
2018-12-24T14:45:23.120Z,95.70
2018-12-24T14:47:53.317Z,96.20
2018-12-24T14:50:23.076Z,96.70
2018-12-24T14:52:53.490Z,96.70
2018-12-24T14:55:24.326Z,97.00
2018-12-24T14:57:54.020Z,97.00
2018-12-24T15:00:23.815Z,96.70
2018-12-24T15:02:53.541Z,96.90
2018-12-24T15:05:23.254Z,96.80
2018-12-24T15:07:52.951Z,96.90
2018-12-24T15:10:22.765Z,97.10
2018-12-24T15:12:53.691Z,97.40
2018-12-24T15:15:24.091Z,97.60
2018-12-24T15:17:53.708Z,97.70
2018-12-24T15:20:23.956Z,97.50
2018-12-24T15:22:53.802Z,97.10
2018-12-24T15:25:24.075Z,97.20
2018-12-24T15:27:53.786Z,96.90
2018-12-24T15:30:23.418Z,97.00
2018-12-24T15:32:58.489Z,97.00
2018-12-24T15:38:32.602Z,96.60
2018-12-24T15:41:02.520Z,96.40
2018-12-24T15:43:32.946Z,96.50
2018-12-24T15:46:02.774Z,96.40
2018-12-24T15:48:33.254Z,96.40
2018-12-24T15:51:03.721Z,96.20
2018-12-24T15:53:34.145Z,96.30
2018-12-24T15:56:03.959Z,96.30
2018-12-24T15:58:34.436Z,96.30
2018-12-24T16:03:39.496Z,96.10
2018-12-24T16:06:09.248Z,96.10
2018-12-24T16:08:40.095Z,95.90
2018-12-24T16:11:10.070Z,95.80
2018-12-24T16:13:40.465Z,95.60
2018-12-24T16:16:10.143Z,95.90
2018-12-24T16:18:40.561Z,95.90
2018-12-24T16:21:10.337Z,95.90
2018-12-24T16:23:40.794Z,96.20
2018-12-24T16:26:11.152Z,95.80
2018-12-24T16:28:40.887Z,95.90
2018-12-24T16:31:10.491Z,95.80
2018-12-24T16:33:40.116Z,96.00
2018-12-24T16:36:09.901Z,96.00
2018-12-24T16:38:40.407Z,96.00
2018-12-24T16:41:10.066Z,95.80
2018-12-24T16:44:03.947Z,95.90
2018-12-24T16:46:59.387Z,95.80
2018-12-24T16:49:24.682Z,95.90
2018-12-24T16:51:54.678Z,95.70
2018-12-24T16:54:43.278Z,95.70
2018-12-24T16:57:13.281Z,95.90
2018-12-24T16:59:42.953Z,95.60
2018-12-24T17:02:12.678Z,95.80
2018-12-24T17:04:42.388Z,95.90
2018-12-24T17:07:12.228Z,95.90
2018-12-24T17:09:42.076Z,95.80
2018-12-24T17:12:12.953Z,95.70
2018-12-24T17:22:11.175Z,95.50
2018-12-24T17:24:41.775Z,95.60
2018-12-24T17:27:11.844Z,95.30
2018-12-24T17:30:00.332Z,95.40
2018-12-24T17:32:32.272Z,95.20
2018-12-24T17:35:02.692Z,95.30
2018-12-24T17:37:32.506Z,95.50
2018-12-24T17:40:02.174Z,95.60
2018-12-24T17:42:31.919Z,95.50
2018-12-24T17:45:01.619Z,95.50
2018-12-24T17:47:31.328Z,95.40
2018-12-24T17:50:01.148Z,95.40
2018-12-24T17:52:31.211Z,95.40
2018-12-24T17:55:01.241Z,95.60
2018-12-24T17:57:30.822Z,95.40
2018-12-24T18:02:37.120Z,95.30
2018-12-24T18:05:07.046Z,95.30
2018-12-24T18:07:36.687Z,95.30
2018-12-24T18:10:06.679Z,95.20
2018-12-24T18:12:36.460Z,95.20
2018-12-24T18:15:06.426Z,95.10
2018-12-24T18:17:36.093Z,95.10
2018-12-24T18:20:05.979Z,95.10
2018-12-24T18:22:35.679Z,95.10
2018-12-24T18:25:06.452Z,95.30
2018-12-24T18:27:36.484Z,95.10
2018-12-24T18:30:06.533Z,95.30
2018-12-24T18:32:42.647Z,95.20
2018-12-24T18:35:12.242Z,95.20
2018-12-24T18:37:41.886Z,95.20
2018-12-24T18:40:12.381Z,95.00
2018-12-24T18:42:43.019Z,95.00
2018-12-24T18:45:12.696Z,95.10
2018-12-24T18:47:42.347Z,95.00
2018-12-24T18:50:12.401Z,95.10
2018-12-24T18:52:43.155Z,95.10
2018-12-24T18:55:12.965Z,95.30
2018-12-24T18:57:42.649Z,95.50
2018-12-24T19:02:47.175Z,95.60
2018-12-24T19:05:17.728Z,95.70
2018-12-24T19:07:48.389Z,95.50
2018-12-24T19:10:18.063Z,95.60
2018-12-24T19:12:48.073Z,95.60
2018-12-24T19:15:17.791Z,95.70
2018-12-24T19:17:47.602Z,95.90
2018-12-24T19:20:17.232Z,96.00
2018-12-24T19:22:47.152Z,96.00
2018-12-24T19:25:16.872Z,96.00
2018-12-24T19:27:46.412Z,95.80
2018-12-24T19:30:16.213Z,96.00
2018-12-24T19:32:45.886Z,95.90
2018-12-24T19:35:15.575Z,95.70
2018-12-24T19:37:45.291Z,95.60
2018-12-24T19:40:15.013Z,95.60
2018-12-24T19:42:44.821Z,95.70
2018-12-24T19:45:14.540Z,95.80
2018-12-24T19:47:49.900Z,95.80
2018-12-24T19:50:15.699Z,95.70
2018-12-24T19:52:45.339Z,95.60
2018-12-24T19:55:14.916Z,95.50
2018-12-24T19:57:44.601Z,95.20
2018-12-24T20:00:14.248Z,95.30
2018-12-24T20:02:43.990Z,95.40
2018-12-24T20:05:13.735Z,95.60
2018-12-24T20:07:43.420Z,95.60
2018-12-24T20:10:13.156Z,95.60
2018-12-24T20:12:44.129Z,95.50
2018-12-24T20:15:13.784Z,95.40
2018-12-24T20:17:43.463Z,95.30
2018-12-24T20:20:13.115Z,95.40
2018-12-24T20:22:42.894Z,95.50
2018-12-24T20:25:12.527Z,95.30
2018-12-24T20:27:42.263Z,95.10
2018-12-24T20:30:12.054Z,95.10
2018-12-24T20:32:41.663Z,94.90
2018-12-24T20:35:11.398Z,95.00
2018-12-24T20:37:41.098Z,95.00
2018-12-24T20:40:10.887Z,94.90
2018-12-24T20:42:40.717Z,94.90
2018-12-24T20:45:10.458Z,94.90
2018-12-24T20:47:43.927Z,94.70
2018-12-24T20:50:13.619Z,94.60
2018-12-24T20:52:43.144Z,94.70
2018-12-24T20:55:12.932Z,94.70
2018-12-24T20:57:42.783Z,94.60
2018-12-24T21:02:47.940Z,94.40
2018-12-24T21:05:17.709Z,94.40
2018-12-24T21:07:47.364Z,94.40
2018-12-24T21:10:16.960Z,94.40
2018-12-24T21:12:46.689Z,94.40
2018-12-24T21:15:16.382Z,94.50
2018-12-24T21:17:46.060Z,94.30
2018-12-24T21:20:15.658Z,94.40
2018-12-24T21:22:45.412Z,94.20
2018-12-24T21:25:15.209Z,94.30
2018-12-24T21:27:44.913Z,94.20
2018-12-24T21:30:14.827Z,94.20
2018-12-24T21:32:44.440Z,94.20
2018-12-24T21:35:14.358Z,94.20
2018-12-24T21:37:43.956Z,94.40
2018-12-24T21:40:13.728Z,94.40
2018-12-24T21:42:43.495Z,94.20
2018-12-24T21:45:13.318Z,94.20
2018-12-24T21:47:42.918Z,94.20
2018-12-24T21:50:12.662Z,94.10
2018-12-24T21:52:42.430Z,94.20
2018-12-24T21:55:12.235Z,94.20
2018-12-24T21:57:41.965Z,94.30
2018-12-24T22:02:46.909Z,94.10
2018-12-24T22:05:16.736Z,94.20
2018-12-24T22:07:46.487Z,94.20
2018-12-24T22:10:16.137Z,94.10
2018-12-24T22:12:45.983Z,94.20
2018-12-24T22:15:15.613Z,94.20
2018-12-24T22:17:45.522Z,94.40
2018-12-24T22:20:15.358Z,94.30
2018-12-24T22:22:45.070Z,94.40
2018-12-24T22:25:14.819Z,94.40
2018-12-24T22:27:44.414Z,94.30
2018-12-24T22:30:14.071Z,94.30
2018-12-24T22:32:43.805Z,94.10
2018-12-24T22:35:13.547Z,94.10
2018-12-24T22:37:43.369Z,94.00
2018-12-24T22:40:13.241Z,94.20
2018-12-24T22:42:42.811Z,94.20
2018-12-24T22:45:12.802Z,94.10
2018-12-24T22:47:42.786Z,94.20
2018-12-24T22:50:12.473Z,94.20
2018-12-24T22:52:42.245Z,94.40
2018-12-24T22:55:12.947Z,94.00
2018-12-24T22:57:42.881Z,94.00
2018-12-24T23:00:15.786Z,94.10
2018-12-24T23:02:45.388Z,94.10
2018-12-24T23:05:15.098Z,94.20
2018-12-24T23:07:44.765Z,94.20
2018-12-24T23:10:14.406Z,94.40
2018-12-24T23:12:44.410Z,94.20
2018-12-24T23:15:14.142Z,94.20
2018-12-24T23:17:43.803Z,94.10
2018-12-24T23:20:13.584Z,94.00
2018-12-24T23:22:43.371Z,94.10
2018-12-24T23:25:13.138Z,93.80
2018-12-24T23:27:42.786Z,93.80
2018-12-24T23:30:12.467Z,93.90
2018-12-24T23:32:43.286Z,93.70
2018-12-24T23:35:13.411Z,93.90
2018-12-24T23:37:43.164Z,93.90
2018-12-24T23:40:12.975Z,93.90
2018-12-24T23:42:42.734Z,93.80
2018-12-24T23:45:12.464Z,94.10
2018-12-24T23:47:42.203Z,93.90
2018-12-24T23:50:11.863Z,94.20
2018-12-24T23:52:41.735Z,94.10
2018-12-24T23:55:11.503Z,94.20
2018-12-24T23:57:41.183Z,94.20
